sensor_id;sensor_type;location;lat;lon;timestamp;pressure;altitude;pressure_sealevel;temperature;humidity
76108;BME280;64834;52.516;10.528;2023-04-01T00:00:24;98991.63;;;9.16;95.61
76108;BME280;64834;52.516;10.528;2023-04-01T00:02:50;98997.75;;;9.16;95.26
76108;BME280;64834;52.516;10.528;2023-04-01T00:05:15;98984.00;;;9.22;95.18
76108;BME280;64834;52.516;10.528;2023-04-01T00:07:44;98999.22;;;9.08;95.82
76108;BME280;64834;52.516;10.528;2023-04-01T00:10:11;98996.84;;;9.16;95.78
76108;BME280;64834;52.516;10.528;2023-04-01T00:12:37;98995.50;;;9.27;95.41
76108;BME280;64834;52.516;10.528;2023-04-01T00:15:05;98996.44;;;9.29;95.18
76108;BME280;64834;52.516;10.528;2023-04-01T00:17:32;98987.72;;;9.29;95.24
76108;BME280;64834;52.516;10.528;2023-04-01T00:19:57;98994.78;;;9.31;94.95
76108;BME280;64834;52.516;10.528;2023-04-01T00:22:24;98994.81;;;9.33;94.98
76108;BME280;64834;52.516;10.528;2023-04-01T00:24:50;98988.50;;;9.26;95.20
76108;BME280;64834;52.516;10.528;2023-04-01T00:27:15;98996.38;;;9.28;95.53
76108;BME280;64834;52.516;10.528;2023-04-01T00:29:44;98990.19;;;9.24;95.26
76108;BME280;64834;52.516;10.528;2023-04-01T00:32:11;98990.13;;;9.23;96.04
76108;BME280;64834;52.516;10.528;2023-04-01T00:34:36;98988.41;;;9.23;95.40
76108;BME280;64834;52.516;10.528;2023-04-01T00:37:03;98988.50;;;9.26;95.65
76108;BME280;64834;52.516;10.528;2023-04-01T00:39:29;98986.88;;;9.30;95.75
76108;BME280;64834;52.516;10.528;2023-04-01T00:41:55;98988.50;;;9.26;95.80
76108;BME280;64834;52.516;10.528;2023-04-01T00:44:33;98982.44;;;9.27;95.71
76108;BME280;64834;52.516;10.528;2023-04-01T00:46:59;98980.69;;;9.26;95.94
76108;BME280;64834;52.516;10.528;2023-04-01T00:49:29;98982.44;;;9.27;95.69
76108;BME280;64834;52.516;10.528;2023-04-01T00:51:58;98977.19;;;9.26;96.18
76108;BME280;64834;52.516;10.528;2023-04-01T00:54:27;98981.41;;;9.22;96.09
76108;BME280;64834;52.516;10.528;2023-04-01T00:59:30;98980.69;;;9.26;96.04
76108;BME280;64834;52.516;10.528;2023-04-01T01:01:56;98986.75;;;9.25;96.28
76108;BME280;64834;52.516;10.528;2023-04-01T01:07:11;98977.03;;;9.21;96.55
76108;BME280;64834;52.516;10.528;2023-04-01T01:12:34;98981.19;;;9.16;96.44
76108;BME280;64834;52.516;10.528;2023-04-01T01:15:26;98983.94;;;9.19;96.83
76108;BME280;64834;52.516;10.528;2023-04-01T01:18:01;98983.72;;;9.13;96.76
76108;BME280;64834;52.516;10.528;2023-04-01T01:20:50;98983.81;;;9.16;96.91
76108;BME280;64834;52.516;10.528;2023-04-01T01:23:45;98977.66;;;9.14;96.94
76108;BME280;64834;52.516;10.528;2023-04-01T01:31:37;98971.41;;;9.09;97.72
76108;BME280;64834;52.516;10.528;2023-04-01T01:34:50;98984.34;;;9.06;97.65
76108;BME280;64834;52.516;10.528;2023-04-01T01:37:21;98985.97;;;9.02;97.76
76108;BME280;64834;52.516;10.528;2023-04-01T01:39:55;98979.94;;;9.05;97.91
76108;BME280;64834;52.516;10.528;2023-04-01T01:42:23;98978.97;;;9.01;97.65
76108;BME280;64834;52.516;10.528;2023-04-01T01:44:52;98980.56;;;8.98;97.77
76108;BME280;64834;52.516;10.528;2023-04-01T01:47:19;98984.19;;;9.01;97.71
76108;BME280;64834;52.516;10.528;2023-04-01T01:49:46;98988.53;;;9.01;97.59
76108;BME280;64834;52.516;10.528;2023-04-01T01:52:12;98987.69;;;9.02;97.39
76108;BME280;64834;52.516;10.528;2023-04-01T01:54:50;98992.06;;;9.03;97.78
76108;BME280;64834;52.516;10.528;2023-04-01T01:57:17;98985.91;;;9.01;97.61
76108;BME280;64834;52.516;10.528;2023-04-01T01:59:44;98984.19;;;9.01;97.65
76108;BME280;64834;52.516;10.528;2023-04-01T02:02:13;98984.06;;;8.98;97.69
76108;BME280;64834;52.516;10.528;2023-04-01T02:04:42;98983.34;;;9.02;97.34
76108;BME280;64834;52.516;10.528;2023-04-01T02:07:17;98985.97;;;9.02;97.68
76108;BME280;64834;52.516;10.528;2023-04-01T02:09:45;98979.81;;;9.00;97.68
76108;BME280;64834;52.516;10.528;2023-04-01T02:12:12;98991.91;;;8.98;97.49
76108;BME280;64834;52.516;10.528;2023-04-01T02:14:39;98987.56;;;8.99;97.91
76108;BME280;64834;52.516;10.528;2023-04-01T02:17:14;98986.69;;;8.98;97.61
76108;BME280;64834;52.516;10.528;2023-04-01T02:19:47;98991.09;;;8.99;97.48
76108;BME280;64834;52.516;10.528;2023-04-01T02:22:18;98987.56;;;8.99;97.61
76108;BME280;64834;52.516;10.528;2023-04-01T02:24:45;98986.59;;;8.95;97.60
76108;BME280;64834;52.516;10.528;2023-04-01T02:27:11;98987.56;;;8.99;97.51
76108;BME280;64834;52.516;10.528;2023-04-01T02:29:37;98986.63;;;8.97;97.47
76108;BME280;64834;52.516;10.528;2023-04-01T02:32:03;98991.81;;;8.95;97.84
76108;BME280;64834;52.516;10.528;2023-04-01T02:34:30;98997.06;;;8.97;97.52
76108;BME280;64834;52.516;10.528;2023-04-01T02:36:56;99004.19;;;9.01;97.05
76108;BME280;64834;52.516;10.528;2023-04-01T02:39:22;98998.00;;;8.99;97.18
76108;BME280;64834;52.516;10.528;2023-04-01T02:41:48;99000.53;;;8.96;96.96
76108;BME280;64834;52.516;10.528;2023-04-01T02:44:14;98999.69;;;8.97;96.88
76108;BME280;64834;52.516;10.528;2023-04-01T02:46:40;98998.06;;;9.00;96.50
76108;BME280;64834;52.516;10.528;2023-04-01T02:49:06;98991.75;;;8.94;96.43
76108;BME280;64834;52.516;10.528;2023-04-01T02:51:32;98998.00;;;8.99;96.42
76108;BME280;64834;52.516;10.528;2023-04-01T02:53:57;99006.75;;;8.99;95.87
76108;BME280;64834;52.516;10.528;2023-04-01T02:56:23;99005.16;;;9.04;95.79
76108;BME280;64834;52.516;10.528;2023-04-01T02:58:48;99005.94;;;9.02;95.66
76108;BME280;64834;52.516;10.528;2023-04-01T03:01:14;99004.22;;;9.02;95.80
76108;BME280;64834;52.516;10.528;2023-04-01T03:03:39;99007.66;;;9.01;95.85
76108;BME280;64834;52.516;10.528;2023-04-01T03:06:09;99014.56;;;8.99;95.92
76108;BME280;64834;52.516;10.528;2023-04-01T03:08:35;99016.38;;;9.02;96.17
76108;BME280;64834;52.516;10.528;2023-04-01T03:11:01;99014.66;;;9.02;95.77
76108;BME280;64834;52.516;10.528;2023-04-01T03:13:26;99009.44;;;9.02;96.06
76108;BME280;64834;52.516;10.528;2023-04-01T03:15:52;99011.03;;;8.99;96.24
76108;BME280;64834;52.516;10.528;2023-04-01T03:18:18;99014.56;;;8.99;95.93
76108;BME280;64834;52.516;10.528;2023-04-01T03:20:43;99012.78;;;8.98;96.15
76108;BME280;64834;52.516;10.528;2023-04-01T03:23:08;99018.06;;;9.00;96.66
76108;BME280;64834;52.516;10.528;2023-04-01T03:25:34;99015.25;;;8.94;96.63
76108;BME280;64834;52.516;10.528;2023-04-01T03:27:59;99010.47;;;8.82;97.13
76108;BME280;64834;52.516;10.528;2023-04-01T03:30:25;99016.78;;;8.88;97.14
76108;BME280;64834;52.516;10.528;2023-04-01T03:32:51;99016.00;;;8.91;96.95
76108;BME280;64834;52.516;10.528;2023-04-01T03:35:16;99020.28;;;8.89;97.40
76108;BME280;64834;52.516;10.528;2023-04-01T03:37:42;99015.06;;;8.89;97.31
76108;BME280;64834;52.516;10.528;2023-04-01T03:40:08;99020.97;;;8.83;97.74
76108;BME280;64834;52.516;10.528;2023-04-01T03:42:33;99016.66;;;8.85;97.58
76108;BME280;64834;52.516;10.528;2023-04-01T03:44:59;99022.72;;;8.84;97.21
76108;BME280;64834;52.516;10.528;2023-04-01T03:47:25;99018.41;;;8.85;97.76
76108;BME280;64834;52.516;10.528;2023-04-01T03:49:50;99021.78;;;8.82;97.41
76108;BME280;64834;52.516;10.528;2023-04-01T03:52:15;99022.63;;;8.81;97.61
76108;BME280;64834;52.516;10.528;2023-04-01T03:54:41;99018.03;;;8.74;97.62
76108;BME280;64834;52.516;10.528;2023-04-01T03:57:06;99022.38;;;8.74;98.23
76108;BME280;64834;52.516;10.528;2023-04-01T03:59:32;99023.31;;;8.76;98.00
76108;BME280;64834;52.516;10.528;2023-04-01T04:01:57;99026.78;;;8.76;98.02
76108;BME280;64834;52.516;10.528;2023-04-01T04:04:22;99027.63;;;8.75;98.06
76108;BME280;64834;52.516;10.528;2023-04-01T04:06:47;99032.63;;;8.69;98.29
76108;BME280;64834;52.516;10.528;2023-04-01T04:09:13;99026.56;;;8.70;98.61
76108;BME280;64834;52.516;10.528;2023-04-01T04:11:38;99037.00;;;8.70;98.47
76108;BME280;64834;52.516;10.528;2023-04-01T04:14:04;99035.22;;;8.69;98.49
76108;BME280;64834;52.516;10.528;2023-04-01T04:16:29;99029.88;;;8.66;98.62
76108;BME280;64834;52.516;10.528;2023-04-01T04:18:54;99039.56;;;8.69;98.78
76108;BME280;64834;52.516;10.528;2023-04-01T04:21:20;99043.09;;;8.71;98.60
76108;BME280;64834;52.516;10.528;2023-04-01T04:23:45;99037.72;;;8.66;98.92
76108;BME280;64834;52.516;10.528;2023-04-01T04:26:13;99042.84;;;8.63;98.99
76108;BME280;64834;52.516;10.528;2023-04-01T04:28:39;99043.75;;;8.65;99.05
76108;BME280;64834;52.516;10.528;2023-04-01T04:31:04;99046.38;;;8.65;99.24
76108;BME280;64834;52.516;10.528;2023-04-01T04:33:31;99041.88;;;8.61;99.34
76108;BME280;64834;52.516;10.528;2023-04-01T04:35:57;99047.16;;;8.62;99.35
76108;BME280;64834;52.516;10.528;2023-04-01T04:38:23;99049.78;;;8.62;99.22
76108;BME280;64834;52.516;10.528;2023-04-01T04:40:49;99050.53;;;8.60;99.18
76108;BME280;64834;52.516;10.528;2023-04-01T04:43:15;99046.19;;;8.60;99.51
76108;BME280;64834;52.516;10.528;2023-04-01T04:45:41;99055.63;;;8.57;99.64
76108;BME280;64834;52.516;10.528;2023-04-01T04:48:11;99055.63;;;8.57;99.64
76108;BME280;64834;52.516;10.528;2023-04-01T04:50:41;99059.09;;;8.56;99.47
76108;BME280;64834;52.516;10.528;2023-04-01T04:53:09;99054.81;;;8.58;99.61
76108;BME280;64834;52.516;10.528;2023-04-01T04:55:35;99057.38;;;8.56;99.48
76108;BME280;64834;52.516;10.528;2023-04-01T04:58:00;99059.78;;;8.52;99.54
76108;BME280;64834;52.516;10.528;2023-04-01T05:00:25;99059.13;;;8.57;99.68
76108;BME280;64834;52.516;10.528;2023-04-01T05:02:51;99066.16;;;8.60;99.44
76108;BME280;64834;52.516;10.528;2023-04-01T05:05:16;99064.41;;;8.59;99.49
76108;BME280;64834;52.516;10.528;2023-04-01T05:07:42;99072.13;;;8.56;99.66
76108;BME280;64834;52.516;10.528;2023-04-01T05:10:07;99066.16;;;8.60;99.74
76108;BME280;64834;52.516;10.528;2023-04-01T05:12:33;99072.34;;;8.62;99.68
76108;BME280;64834;52.516;10.528;2023-04-01T05:15:07;99081.19;;;8.67;99.38
76108;BME280;64834;52.516;10.528;2023-04-01T05:17:32;99074.22;;;8.66;99.27
76108;BME280;64834;52.516;10.528;2023-04-01T05:19:58;99076.81;;;8.66;99.25
76108;BME280;64834;52.516;10.528;2023-04-01T05:22:23;99068.16;;;8.67;99.58
76108;BME280;64834;52.516;10.528;2023-04-01T05:24:48;99067.28;;;8.67;99.29
76108;BME280;64834;52.516;10.528;2023-04-01T05:27:14;99077.84;;;8.70;99.32
76108;BME280;64834;52.516;10.528;2023-04-01T05:29:39;99076.97;;;8.69;99.10
76108;BME280;64834;52.516;10.528;2023-04-01T05:32:04;99077.88;;;8.71;99.20
76108;BME280;64834;52.516;10.528;2023-04-01T05:34:30;99078.94;;;8.76;99.36
76108;BME280;64834;52.516;10.528;2023-04-01T05:36:55;99078.91;;;8.75;99.01
76108;BME280;64834;52.516;10.528;2023-04-01T05:39:20;99087.63;;;8.75;99.20
76108;BME280;64834;52.516;10.528;2023-04-01T05:41:46;99083.31;;;8.77;98.85
76108;BME280;64834;52.516;10.528;2023-04-01T05:44:12;99080.09;;;8.84;99.05
76108;BME280;64834;52.516;10.528;2023-04-01T05:46:37;99077.44;;;8.83;99.00
76108;BME280;64834;52.516;10.528;2023-04-01T05:49:03;99095.81;;;8.86;98.87
76108;BME280;64834;52.516;10.528;2023-04-01T05:51:28;99088.91;;;8.86;98.83
76108;BME280;64834;52.516;10.528;2023-04-01T05:53:53;99088.81;;;8.85;98.79
76108;BME280;64834;52.516;10.528;2023-04-01T05:56:19;99091.56;;;8.88;98.73
76108;BME280;64834;52.516;10.528;2023-04-01T05:58:47;99093.31;;;8.89;98.84
76108;BME280;64834;52.516;10.528;2023-04-01T06:01:15;99096.16;;;8.95;98.71
76108;BME280;64834;52.516;10.528;2023-04-01T06:03:40;99102.22;;;8.94;98.74
76108;BME280;64834;52.516;10.528;2023-04-01T06:06:16;99089.47;;;9.03;98.52
76108;BME280;64834;52.516;10.528;2023-04-01T06:08:44;99099.00;;;9.01;98.35
76108;BME280;64834;52.516;10.528;2023-04-01T06:13:56;99096.47;;;9.04;98.24
76108;BME280;64834;52.516;10.528;2023-04-01T06:19:12;99104.53;;;9.10;98.03
76108;BME280;64834;52.516;10.528;2023-04-01T06:24:44;99107.78;;;9.05;98.23
76108;BME280;64834;52.516;10.528;2023-04-01T06:30:30;99117.44;;;9.06;98.60
76108;BME280;64834;52.516;10.528;2023-04-01T06:35:49;99114.97;;;9.10;98.28
76108;BME280;64834;52.516;10.528;2023-04-01T06:38:34;99120.25;;;9.12;97.94
76108;BME280;64834;52.516;10.528;2023-04-01T06:41:20;99111.47;;;9.10;98.21
76108;BME280;64834;52.516;10.528;2023-04-01T06:49:44;99123.34;;;9.26;98.15
76108;BME280;64834;52.516;10.528;2023-04-01T06:52:27;99132.25;;;9.31;97.94
76108;BME280;64834;52.516;10.528;2023-04-01T06:57:49;99133.59;;;9.45;97.82
76108;BME280;64834;52.516;10.528;2023-04-01T07:00:26;99133.84;;;9.53;97.48
76108;BME280;64834;52.516;10.528;2023-04-01T07:03:06;99132.09;;;9.52;96.79
76108;BME280;64834;52.516;10.528;2023-04-01T07:05:35;99134.91;;;9.58;96.71
76108;BME280;64834;52.516;10.528;2023-04-01T07:08:04;99135.22;;;9.67;96.64
76108;BME280;64834;52.516;10.528;2023-04-01T07:13:34;99139.19;;;9.81;96.14
76108;BME280;64834;52.516;10.528;2023-04-01T07:16:27;99137.38;;;9.80;95.65
76108;BME280;64834;52.516;10.528;2023-04-01T07:19:31;99152.75;;;9.96;96.12
76108;BME280;64834;52.516;10.528;2023-04-01T07:22:03;99152.91;;;10.01;95.52
76108;BME280;64834;52.516;10.528;2023-04-01T07:24:44;99150.06;;;9.93;94.84
76108;BME280;64834;52.516;10.528;2023-04-01T07:27:12;99151.94;;;9.99;95.37
76108;BME280;64834;52.516;10.528;2023-04-01T07:29:37;99154.69;;;10.02;95.39
76108;BME280;64834;52.516;10.528;2023-04-01T07:32:39;99162.53;;;10.02;95.13
76108;BME280;64834;52.516;10.528;2023-04-01T07:35:38;99162.94;;;10.14;94.62
76108;BME280;64834;52.516;10.528;2023-04-01T07:38:32;99161.28;;;10.18;94.85
76108;BME280;64834;52.516;10.528;2023-04-01T07:41:22;99166.47;;;10.16;94.37
76108;BME280;64834;52.516;10.528;2023-04-01T07:44:00;99169.19;;;10.19;94.15
76108;BME280;64834;52.516;10.528;2023-04-01T07:46:48;99165.97;;;10.26;93.83
76108;BME280;64834;52.516;10.528;2023-04-01T07:49:24;99173.97;;;10.31;93.92
76108;BME280;64834;52.516;10.528;2023-04-01T07:54:49;99174.09;;;10.36;93.46
76108;BME280;64834;52.516;10.528;2023-04-01T07:57:22;99183.16;;;10.47;93.72
76108;BME280;64834;52.516;10.528;2023-04-01T08:00:10;99180.91;;;10.58;93.12
76108;BME280;64834;52.516;10.528;2023-04-01T08:02:58;99187.03;;;10.58;92.70
76108;BME280;64834;52.516;10.528;2023-04-01T08:05:30;99188.75;;;10.58;92.46
76108;BME280;64834;52.516;10.528;2023-04-01T08:08:16;99190.53;;;10.59;91.74
76108;BME280;64834;52.516;10.528;2023-04-01T08:13:46;99182.72;;;10.89;91.36
76108;BME280;64834;52.516;10.528;2023-04-01T08:16:36;99190.97;;;11.02;90.52
76108;BME280;64834;52.516;10.528;2023-04-01T08:19:15;99199.41;;;11.22;89.76
76108;BME280;64834;52.516;10.528;2023-04-01T08:21:55;99194.66;;;11.09;88.98
76108;BME280;64834;52.516;10.528;2023-04-01T08:24:41;99200.78;;;11.10;88.79
76108;BME280;64834;52.516;10.528;2023-04-01T08:27:48;99198.28;;;11.13;89.36
76108;BME280;64834;52.516;10.528;2023-04-01T08:30:25;99205.94;;;11.06;88.87
76108;BME280;64834;52.516;10.528;2023-04-01T08:33:00;99209.53;;;11.10;89.61
76108;BME280;64834;52.516;10.528;2023-04-01T08:35:46;99205.66;;;11.27;89.19
76108;BME280;64834;52.516;10.528;2023-04-01T08:38:19;99210.19;;;11.33;88.76
76108;BME280;64834;52.516;10.528;2023-04-01T08:40:55;99210.78;;;11.54;87.49
76108;BME280;64834;52.516;10.528;2023-04-01T08:46:42;99213.91;;;11.73;86.38
76108;BME280;64834;52.516;10.528;2023-04-01T08:51:57;99216.53;;;11.73;84.77
76108;BME280;64834;52.516;10.528;2023-04-01T09:05:47;99215.50;;;11.36;83.12
76108;BME280;64834;52.516;10.528;2023-04-01T09:11:16;99225.94;;;11.65;81.23
76108;BME280;64834;52.516;10.528;2023-04-01T09:13:52;99227.16;;;11.77;80.83
76108;BME280;64834;52.516;10.528;2023-04-01T09:19:16;99226.56;;;12.21;78.58
76108;BME280;64834;52.516;10.528;2023-04-01T09:21:57;99221.19;;;12.51;78.63
76108;BME280;64834;52.516;10.528;2023-04-01T09:24:40;99222.16;;;12.54;77.03
76108;BME280;64834;52.516;10.528;2023-04-01T09:27:25;99226.97;;;12.74;75.31
76108;BME280;64834;52.516;10.528;2023-04-01T09:30:24;99223.63;;;12.81;73.90
76108;BME280;64834;52.516;10.528;2023-04-01T09:36:07;99233.25;;;12.80;74.53
76108;BME280;64834;52.516;10.528;2023-04-01T09:38:58;99237.22;;;13.01;73.22
76108;BME280;64834;52.516;10.528;2023-04-01T09:41:30;99234.72;;;13.07;74.16
76108;BME280;64834;52.516;10.528;2023-04-01T09:44:01;99237.75;;;12.86;73.56
76108;BME280;64834;52.516;10.528;2023-04-01T09:49:39;99242.00;;;12.81;73.64
76108;BME280;64834;52.516;10.528;2023-04-01T09:52:45;99246.88;;;12.64;71.97
76108;BME280;64834;52.516;10.528;2023-04-01T09:55:35;99240.34;;;12.47;72.44
76108;BME280;64834;52.516;10.528;2023-04-01T10:01:11;99247.16;;;12.38;73.59
76108;BME280;64834;52.516;10.528;2023-04-01T10:14:37;99270.53;;;12.31;76.22
76108;BME280;64834;52.516;10.528;2023-04-01T10:17:36;99270.78;;;12.40;76.85
76108;BME280;64834;52.516;10.528;2023-04-01T10:23:22;99267.75;;;12.25;77.55
76108;BME280;64834;52.516;10.528;2023-04-01T10:26:10;99269.84;;;12.38;78.33
76108;BME280;64834;52.516;10.528;2023-04-01T10:31:54;99275.78;;;12.31;78.29
76108;BME280;64834;52.516;10.528;2023-04-01T10:36:54;99279.22;;;12.28;79.39
76108;BME280;64834;52.516;10.528;2023-04-01T10:39:50;99287.78;;;12.21;79.56
76108;BME280;64834;52.516;10.528;2023-04-01T10:43:02;99275.59;;;12.23;77.39
76108;BME280;64834;52.516;10.528;2023-04-01T10:54:09;99286.28;;;12.31;76.74
76108;BME280;64834;52.516;10.528;2023-04-01T10:56:53;99291.81;;;12.41;74.87
76108;BME280;64834;52.516;10.528;2023-04-01T11:05:52;99297.78;;;12.36;75.90
76108;BME280;64834;52.516;10.528;2023-04-01T11:11:25;99307.50;;;12.40;78.86
76108;BME280;64834;52.516;10.528;2023-04-01T11:17:23;99312.34;;;12.25;79.28
76108;BME280;64834;52.516;10.528;2023-04-01T11:20:26;99315.44;;;12.10;82.18
76108;BME280;64834;52.516;10.528;2023-04-01T11:26:01;99322.22;;;12.02;81.63
76108;BME280;64834;52.516;10.528;2023-04-01T11:28:43;99328.97;;;11.94;81.83
76108;BME280;64834;52.516;10.528;2023-04-01T11:31:43;99337.91;;;11.70;83.05
76108;BME280;64834;52.516;10.528;2023-04-01T11:34:26;99335.69;;;11.55;82.70
76108;BME280;64834;52.516;10.528;2023-04-01T11:46:10;99342.31;;;11.73;81.33
76108;BME280;64834;52.516;10.528;2023-04-01T11:59:15;99356.94;;;11.65;84.76
76108;BME280;64834;52.516;10.528;2023-04-01T12:04:39;99372.09;;;11.46;83.98
76108;BME280;64834;52.516;10.528;2023-04-01T12:07:18;99367.81;;;11.50;84.80
76108;BME280;64834;52.516;10.528;2023-04-01T12:10:15;99380.66;;;11.41;86.30
76108;BME280;64834;52.516;10.528;2023-04-01T12:12:51;99377.78;;;10.79;89.01
76108;BME280;64834;52.516;10.528;2023-04-01T12:18:38;99389.72;;;10.21;91.02
76108;BME280;64834;52.516;10.528;2023-04-01T12:21:28;99399.00;;;10.13;92.70
76108;BME280;64834;52.516;10.528;2023-04-01T12:24:25;99405.84;;;10.10;93.75
76108;BME280;64834;52.516;10.528;2023-04-01T12:27:04;99406.50;;;10.04;93.57
76108;BME280;64834;52.516;10.528;2023-04-01T12:29:59;99399.97;;;9.93;92.97
76108;BME280;64834;52.516;10.528;2023-04-01T12:35:45;99415.22;;;9.58;94.92
76108;BME280;64834;52.516;10.528;2023-04-01T12:38:31;99420.75;;;9.43;94.63
76108;BME280;64834;52.516;10.528;2023-04-01T12:44:01;99430.81;;;9.34;94.91
76108;BME280;64834;52.516;10.528;2023-04-01T12:46:56;99436.13;;;9.15;94.44
76108;BME280;64834;52.516;10.528;2023-04-01T12:49:34;99439.31;;;9.08;95.17
76108;BME280;64834;52.516;10.528;2023-04-01T12:52:39;99436.50;;;9.03;95.38
76108;BME280;64834;52.516;10.528;2023-04-01T12:55:35;99448.97;;;9.10;95.64
76108;BME280;64834;52.516;10.528;2023-04-01T13:01:01;99453.50;;;9.14;95.43
76108;BME280;64834;52.516;10.528;2023-04-01T13:03:52;99454.78;;;9.24;94.72
76108;BME280;64834;52.516;10.528;2023-04-01T13:06:30;99453.19;;;9.07;94.61
76108;BME280;64834;52.516;10.528;2023-04-01T13:09:23;99462.34;;;8.97;95.41
76108;BME280;64834;52.516;10.528;2023-04-01T13:14:50;99475.13;;;8.91;95.40
76108;BME280;64834;52.516;10.528;2023-04-01T13:17:28;99477.75;;;8.91;96.01
76108;BME280;64834;52.516;10.528;2023-04-01T13:25:24;99488.91;;;9.08;94.83
76108;BME280;64834;52.516;10.528;2023-04-01T13:30:44;99493.09;;;9.25;93.85
76108;BME280;64834;52.516;10.528;2023-04-01T13:33:21;99495.31;;;9.16;94.51
76108;BME280;64834;52.516;10.528;2023-04-01T13:36:10;99499.13;;;9.03;93.59
76108;BME280;64834;52.516;10.528;2023-04-01T13:39:23;99504.97;;;8.98;93.65
76108;BME280;64834;52.516;10.528;2023-04-01T13:41:39;99510.19;;;8.98;92.72
76108;BME280;64834;52.516;10.528;2023-04-01T13:44:14;99515.59;;;8.81;92.21
76108;BME280;64834;52.516;10.528;2023-04-01T13:52:55;99531.31;;;8.63;92.76
76108;BME280;64834;52.516;10.528;2023-04-01T13:55:46;99540.38;;;8.52;92.88
76108;BME280;64834;52.516;10.528;2023-04-01T14:04:15;99551.63;;;8.51;92.77
76108;BME280;64834;52.516;10.528;2023-04-01T14:09:45;99554.66;;;8.23;91.86
76108;BME280;64834;52.516;10.528;2023-04-01T14:12:39;99561.56;;;8.23;91.52
76108;BME280;64834;52.516;10.528;2023-04-01T14:15:17;99561.50;;;8.21;91.38
76108;BME280;64834;52.516;10.528;2023-04-01T14:17:55;99567.06;;;8.29;92.20
76108;BME280;64834;52.516;10.528;2023-04-01T14:20:39;99559.59;;;8.17;91.56
76108;BME280;64834;52.516;10.528;2023-04-01T14:23:37;99575.19;;;8.35;91.52
76108;BME280;64834;52.516;10.528;2023-04-01T14:29:02;99580.63;;;8.40;91.32
76108;BME280;64834;52.516;10.528;2023-04-01T14:31:56;99585.03;;;8.41;91.27
76108;BME280;64834;52.516;10.528;2023-04-01T14:34:49;99592.94;;;8.24;92.09
76108;BME280;64834;52.516;10.528;2023-04-01T14:37:30;99589.88;;;8.15;92.40
76108;BME280;64834;52.516;10.528;2023-04-01T14:43:18;99601.44;;;8.02;91.81
76108;BME280;64834;52.516;10.528;2023-04-01T14:48:57;99605.00;;;8.04;92.68
76108;BME280;64834;52.516;10.528;2023-04-01T14:51:36;99614.22;;;7.98;92.28
76108;BME280;64834;52.516;10.528;2023-04-01T14:54:19;99613.28;;;7.96;92.81
76108;BME280;64834;52.516;10.528;2023-04-01T14:56:51;99623.41;;;7.90;93.45
76108;BME280;64834;52.516;10.528;2023-04-01T14:59:28;99624.00;;;7.84;93.90
76108;BME280;64834;52.516;10.528;2023-04-01T15:04:50;99626.38;;;7.62;94.41
76108;BME280;64834;52.516;10.528;2023-04-01T15:07:35;99641.25;;;7.48;93.99
76108;BME280;64834;52.516;10.528;2023-04-01T15:13:12;99653.50;;;7.33;93.83
76108;BME280;64834;52.516;10.528;2023-04-01T15:15:57;99664.41;;;7.42;94.53
76108;BME280;64834;52.516;10.528;2023-04-01T15:21:18;99669.63;;;7.25;94.94
76108;BME280;64834;52.516;10.528;2023-04-01T15:23:56;99672.47;;;7.30;95.49
76108;BME280;64834;52.516;10.528;2023-04-01T15:26:28;99681.06;;;7.29;95.53
76108;BME280;64834;52.516;10.528;2023-04-01T15:29:38;99677.94;;;7.18;96.34
76108;BME280;64834;52.516;10.528;2023-04-01T15:32:27;99692.00;;;7.06;95.67
76108;BME280;64834;52.516;10.528;2023-04-01T15:40:27;99697.09;;;6.88;95.23
76108;BME280;64834;52.516;10.528;2023-04-01T15:43:11;99707.59;;;6.89;95.46
76108;BME280;64834;52.516;10.528;2023-04-01T15:45:58;99710.94;;;6.87;96.22
76108;BME280;64834;52.516;10.528;2023-04-01T15:48:49;99710.03;;;6.86;96.05
76108;BME280;64834;52.516;10.528;2023-04-01T15:57:02;99736.63;;;6.66;95.26
76108;BME280;64834;52.516;10.528;2023-04-01T16:05:30;99740.78;;;6.62;95.94
76108;BME280;64834;52.516;10.528;2023-04-01T16:19:28;99775.97;;;6.26;96.74
76108;BME280;64834;52.516;10.528;2023-04-01T16:24:45;99789.84;;;6.27;96.22
76108;BME280;64834;52.516;10.528;2023-04-01T16:27:37;99792.16;;;6.22;96.43
76108;BME280;64834;52.516;10.528;2023-04-01T16:32:49;99809.66;;;6.25;96.69
76108;BME280;64834;52.516;10.528;2023-04-01T16:35:30;99799.59;;;6.01;96.87
76108;BME280;64834;52.516;10.528;2023-04-01T16:41:00;99824.16;;;5.91;96.30
76108;BME280;64834;52.516;10.528;2023-04-01T16:46:14;99835.97;;;6.01;96.02
76108;BME280;64834;52.516;10.528;2023-04-01T16:51:44;99846.88;;;5.95;96.05
76108;BME280;64834;52.516;10.528;2023-04-01T16:54:26;99855.31;;;5.91;96.01
76108;BME280;64834;52.516;10.528;2023-04-01T17:00:02;99863.63;;;6.01;95.85
76108;BME280;64834;52.516;10.528;2023-04-01T17:02:35;99875.34;;;5.94;95.10
76108;BME280;64834;52.516;10.528;2023-04-01T17:05:05;99877.16;;;5.95;95.17
76108;BME280;64834;52.516;10.528;2023-04-01T17:07:40;99886.31;;;5.90;95.24
76108;BME280;64834;52.516;10.528;2023-04-01T17:16:26;99894.41;;;5.66;96.43
76108;BME280;64834;52.516;10.528;2023-04-01T17:22:12;99905.97;;;5.72;96.00
76108;BME280;64834;52.516;10.528;2023-04-01T17:25:00;99913.91;;;5.60;95.45
76108;BME280;64834;52.516;10.528;2023-04-01T17:30:40;99933.19;;;5.50;95.52
76108;BME280;64834;52.516;10.528;2023-04-01T17:33:25;99932.78;;;5.44;95.92
76108;BME280;64834;52.516;10.528;2023-04-01T17:36:05;99941.00;;;5.37;96.89
76108;BME280;64834;52.516;10.528;2023-04-01T17:38:56;99947.66;;;5.33;96.14
76108;BME280;64834;52.516;10.528;2023-04-01T17:44:18;99956.75;;;5.27;96.12
76108;BME280;64834;52.516;10.528;2023-04-01T17:52:23;99978.31;;;5.26;96.02
76108;BME280;64834;52.516;10.528;2023-04-01T17:57:53;99975.81;;;5.14;96.50
76108;BME280;64834;52.516;10.528;2023-04-01T18:00:33;99997.16;;;5.10;96.59
76108;BME280;64834;52.516;10.528;2023-04-01T18:03:28;99998.47;;;5.03;96.57
76108;BME280;64834;52.516;10.528;2023-04-01T18:06:04;100015.31;;;5.10;95.93